Time;durP1;ratioP1;P1;durP2;ratioP2;P2;SDS_P1;SDS_P2;PMS_P1;PMS_P2;Temp;Humidity;BMP_temperature;BMP_pressure;BME280_temperature;BME280_humidity;BME280_pressure;Samples;Min_cycle;Max_cycle;Signal;HPM_P1;HPM_P2
2022/10/14 00:01:08;;;;;;;23.22;15.05;;;;;;;11.27;69.91;101477.25;1684412;84;21933;-67
2022/10/14 00:03:36;;;;;;;24.07;15.00;;;;;;;11.28;69.82;101474.04;1735676;82;20964;-68
2022/10/14 00:06:06;;;;;;;27.30;17.30;;;;;;;11.30;69.84;101471.95;1728325;83;21079;-67
2022/10/14 00:08:34;;;;;;;23.80;15.78;;;;;;;11.36;69.88;101476.34;1728235;83;20976;-67
2022/10/14 00:11:07;;;;;;;22.60;15.68;;;;;;;11.40;69.89;101476.15;1703386;83;21051;-67
2022/10/14 00:13:34;;;;;;;24.40;15.63;;;;;;;11.37;69.83;101466.45;1707377;81;21125;-67
2022/10/14 00:16:01;;;;;;;25.10;15.95;;;;;;;11.39;69.86;101467.84;1721414;81;21024;-66
2022/10/14 00:18:28;;;;;;;20.68;14.03;;;;;;;11.40;69.88;101465.45;1722437;83;21397;-68
2022/10/14 00:20:56;;;;;;;22.60;14.80;;;;;;;11.45;69.89;101468.73;1708110;82;20976;-67
2022/10/14 00:23:24;;;;;;;25.82;15.45;;;;;;;11.40;69.85;101464.11;1727926;83;21443;-67
2022/10/14 00:25:50;;;;;;;21.82;14.50;;;;;;;11.40;69.92;101468.66;1719003;81;21553;-67
2022/10/14 00:28:17;;;;;;;25.13;14.67;;;;;;;11.43;69.95;101463.63;1713027;83;21071;-67
2022/10/14 00:30:56;;;;;;;21.30;15.48;;;;;;;11.48;69.98;101469.09;1703138;84;21573;-67
2022/10/14 00:33:24;;;;;;;24.97;14.83;;;;;;;11.53;69.99;101459.52;1712022;82;21454;-67
2022/10/14 00:36:01;;;;;;;21.73;14.53;;;;;;;11.56;69.91;101461.19;1704113;82;21337;-67
2022/10/14 00:38:33;;;;;;;24.23;15.10;;;;;;;11.54;69.82;101459.27;1727488;81;21231;-67
2022/10/14 00:41:00;;;;;;;26.13;16.03;;;;;;;11.41;69.80;101457.70;1719499;82;21198;-67
2022/10/14 00:43:27;;;;;;;22.90;15.70;;;;;;;11.23;69.92;101456.58;1735442;82;21121;-67
2022/10/14 00:45:54;;;;;;;24.52;16.05;;;;;;;11.13;70.17;101452.38;1729517;81;21795;-67
2022/10/14 00:48:23;;;;;;;27.70;16.33;;;;;;;11.14;70.38;101454.00;1720585;81;21133;-67
2022/10/14 00:50:53;;;;;;;25.90;16.95;;;;;;;11.19;70.45;101452.23;1722039;81;21233;-68
2022/10/14 00:53:20;;;;;;;23.53;16.07;;;;;;;11.24;70.48;101449.64;1720564;83;21099;-67
2022/10/14 00:55:47;;;;;;;27.73;16.65;;;;;;;11.30;70.46;101448.41;1730908;81;21825;-67
2022/10/14 00:58:14;;;;;;;24.63;15.95;;;;;;;11.35;70.39;101446.65;1707914;82;21003;-67
2022/10/14 01:00:40;;;;;;;26.50;16.48;;;;;;;11.32;70.23;101440.94;1674002;84;21043;-68
2022/10/14 01:03:12;;;;;;;27.27;16.90;;;;;;;11.21;70.18;101446.11;1710687;81;21072;-68
2022/10/14 01:05:44;;;;;;;27.42;16.65;;;;;;;11.04;70.19;101446.05;1714236;82;21058;-67
2022/10/14 01:08:23;;;;;;;27.17;16.93;;;;;;;10.91;70.37;101443.66;1702287;84;20987;-68
2022/10/14 01:11:14;;;;;;;27.82;17.10;;;;;;;10.90;70.51;101444.72;1703729;82;21102;-68
2022/10/14 01:13:56;;;;;;;26.85;16.82;;;;;;;10.87;70.54;101439.84;1709042;82;21023;-67
2022/10/14 01:16:31;;;;;;;29.92;18.05;;;;;;;10.79;70.61;101440.20;1688420;82;21307;-68
2022/10/14 01:19:09;;;;;;;28.65;16.95;;;;;;;10.79;70.78;101438.87;1730788;82;21028;-68
2022/10/14 01:21:46;;;;;;;27.55;17.42;;;;;;;10.85;70.90;101436.59;1723811;82;21004;-67
2022/10/14 01:24:42;;;;;;;28.00;16.23;;;;;;;10.93;70.91;101430.89;1702954;84;21057;-67
2022/10/14 01:27:24;;;;;;;27.58;14.53;;;;;;;10.97;70.76;101433.36;1717193;82;21325;-66
2022/10/14 01:30:02;;;;;;;24.50;14.93;;;;;;;10.91;70.61;101438.31;1705516;81;21314;-66
2022/10/14 01:32:46;;;;;;;23.77;14.68;;;;;;;10.79;70.64;101436.20;1706578;81;21062;-67
2022/10/14 01:35:27;;;;;;;24.37;14.25;;;;;;;10.69;70.74;101438.66;1711054;82;21001;-67
2022/10/14 01:37:58;;;;;;;26.17;15.18;;;;;;;10.56;70.87;101433.05;1702915;82;20983;-67
2022/10/14 01:40:48;;;;;;;23.73;14.80;;;;;;;10.46;71.08;101432.84;1724863;81;21066;-67
2022/10/14 01:43:17;;;;;;;26.90;15.23;;;;;;;10.42;71.33;101433.02;1687004;83;21115;-67
2022/10/14 01:45:46;;;;;;;26.57;14.30;;;;;;;10.48;71.56;101432.09;1706064;82;20857;-67
2022/10/14 01:48:15;;;;;;;22.10;13.93;;;;;;;10.55;71.59;101435.44;1714007;82;21537;-67
2022/10/14 01:50:42;;;;;;;21.40;13.58;;;;;;;10.60;71.56;101430.75;1703204;82;21085;-67
2022/10/14 01:53:26;;;;;;;21.20;13.72;;;;;;;10.58;71.56;101430.16;1718228;82;21099;-67
2022/10/14 01:55:54;;;;;;;19.48;13.62;;;;;;;10.52;71.66;101432.71;1732503;82;21785;-67
2022/10/14 01:58:24;;;;;;;19.32;13.88;;;;;;;10.52;71.82;101430.04;1712717;82;21176;-67
2022/10/14 02:00:50;;;;;;;20.62;15.53;;;;;;;10.58;72.00;101429.63;1722697;81;21028;-69
2022/10/14 02:03:17;;;;;;;22.02;13.32;;;;;;;10.65;72.09;101428.16;1723707;82;21093;-68
2022/10/14 02:06:00;;;;;;;21.07;13.78;;;;;;;10.72;72.08;101435.52;1714798;82;21027;-68
2022/10/14 02:09:06;;;;;;;20.25;11.83;;;;;;;10.71;71.95;101425.36;1707632;81;21471;-68
2022/10/14 02:12:11;;;;;;;20.00;12.40;;;;;;;10.63;71.88;101427.58;1707262;82;21059;-67
2022/10/14 02:14:53;;;;;;;19.02;12.30;;;;;;;10.46;71.94;101427.50;1723842;82;21058;-67
2022/10/14 02:17:42;;;;;;;;;;;;;;;10.36;72.05;101425.41;1714614;82;21161;-67
2022/10/14 02:20:25;;;;;;;18.85;11.35;;;;;;;10.29;72.10;101424.73;1704243;82;20641;-67
2022/10/14 02:23:07;;;;;;;20.17;12.93;;;;;;;10.18;72.23;101420.19;1695253;81;21498;-67
2022/10/14 02:25:37;;;;;;;21.07;12.25;;;;;;;10.09;72.39;101425.87;1683094;84;21054;-68
2022/10/14 02:28:07;;;;;;;20.15;12.65;;;;;;;10.01;72.61;101424.89;1678785;81;21557;-68
2022/10/14 02:30:43;;;;;;;18.82;13.05;;;;;;;9.96;72.76;101422.09;1710173;81;21027;-69
2022/10/14 02:33:09;;;;;;;19.65;12.90;;;;;;;9.98;72.93;101421.34;1722711;81;21584;-68
2022/10/14 02:35:37;;;;;;;19.62;11.83;;;;;;;10.03;72.97;101422.78;1703289;82;21455;-68
2022/10/14 02:38:05;;;;;;;19.82;12.65;;;;;;;10.08;72.98;101421.58;1714904;81;20941;-68
2022/10/14 02:40:39;;;;;;;18.23;12.10;;;;;;;10.13;72.99;101418.73;1709408;82;21094;-67
2022/10/14 02:43:08;;;;;;;19.80;12.45;;;;;;;10.17;72.92;101419.87;1706322;82;21073;-68
2022/10/14 02:45:38;;;;;;;17.82;12.82;;;;;;;10.16;72.86;101416.94;1732022;82;21054;-67
2022/10/14 02:48:06;;;;;;;18.32;12.95;;;;;;;10.17;72.85;101420.72;1729443;82;21173;-67
2022/10/14 02:50:33;;;;;;;19.55;13.75;;;;;;;10.20;72.75;101420.75;1705209;82;21003;-67
2022/10/14 02:53:00;;;;;;;21.80;13.05;;;;;;;10.19;72.62;101423.95;1713729;82;21000;-67
2022/10/14 02:55:26;;;;;;;21.45;13.72;;;;;;;10.19;72.55;101425.81;1731855;82;21058;-67
2022/10/14 02:57:54;;;;;;;20.05;13.60;;;;;;;10.20;72.52;101427.42;1731939;82;21047;-67
2022/10/14 03:00:20;;;;;;;18.12;13.30;;;;;;;10.21;72.49;101427.73;1732458;82;21256;-67
2022/10/14 03:02:47;;;;;;;18.82;12.90;;;;;;;10.23;72.49;101429.63;1729356;82;21126;-67
2022/10/14 03:05:15;;;;;;;18.82;13.15;;;;;;;10.23;72.39;101429.63;1712532;82;21499;-67
2022/10/14 03:07:41;;;;;;;22.93;15.08;;;;;;;10.22;72.34;101428.83;1703102;84;21024;-67
2022/10/14 03:10:10;;;;;;;22.17;13.30;;;;;;;10.21;72.29;101427.73;1705155;82;21034;-66
2022/10/14 03:12:36;;;;;;;19.05;13.80;;;;;;;10.22;72.30;101426.69;1703233;82;21175;-67
2022/10/14 03:15:07;;;;;;;21.75;13.70;;;;;;;10.22;72.27;101427.49;1677141;84;21476;-67
2022/10/14 03:17:35;;;;;;;20.60;14.13;;;;;;;10.22;72.18;101429.36;1703401;84;21153;-67
2022/10/14 03:20:06;;;;;;;19.10;13.40;;;;;;;10.20;72.08;101420.75;1690754;82;21577;-67
2022/10/14 03:22:36;;;;;;;;;;;;;;;10.18;71.97;101424.20;1735428;82;21055;-67
2022/10/14 03:25:07;;;;;;;23.65;15.30;;;;;;;10.16;71.96;101423.08;1732397;82;21126;-68
2022/10/14 03:27:35;;;;;;;22.85;14.45;;;;;;;10.16;71.95;101420.94;1707338;82;21048;-67
2022/10/14 03:30:06;;;;;;;21.48;14.58;;;;;;;10.15;71.99;101423.33;1722957;81;20984;-68
2022/10/14 03:32:34;;;;;;;23.60;15.40;;;;;;;10.13;71.93;101424.07;1719442;81;21099;-67
2022/10/14 03:35:21;;;;;;;22.93;14.15;;;;;;;10.10;71.86;101420.84;1622430;87;21119;-67
2022/10/14 03:37:49;;;;;;;20.10;14.53;;;;;;;10.10;71.77;101425.34;1622547;87;21106;-66
2022/10/14 03:40:17;;;;;;;20.97;14.43;;;;;;;10.08;71.75;101425.59;1657070;82;21110;-67
2022/10/14 03:42:44;;;;;;;23.98;16.02;;;;;;;10.08;71.73;101428.25;1702903;84;21043;-67
2022/10/14 03:45:11;;;;;;;20.52;14.20;;;;;;;10.07;71.69;101423.97;1715185;82;21135;-68
2022/10/14 03:47:41;;;;;;;24.18;15.18;;;;;;;10.07;71.62;101420.49;1702019;83;21061;-67
2022/10/14 03:50:08;;;;;;;19.90;14.13;;;;;;;10.04;71.53;101420.43;1702471;83;21378;-67
2022/10/14 03:52:39;;;;;;;20.48;15.40;;;;;;;10.03;71.42;101420.11;1717323;81;21071;-67
2022/10/14 03:55:08;;;;;;;24.07;15.05;;;;;;;10.02;71.34;101424.37;1729488;82;21003;-67
2022/10/14 03:57:35;;;;;;;22.17;14.03;;;;;;;10.01;71.27;101424.09;1720050;82;21492;-68
2022/10/14 04:00:06;;;;;;;21.10;14.53;;;;;;;10.01;71.26;101424.89;1718446;82;21054;-67
2022/10/14 04:02:41;;;;;;;20.77;14.47;;;;;;;10.01;71.30;101426.23;1723207;82;21264;-67
2022/10/14 04:05:17;;;;;;;21.30;13.98;;;;;;;10.01;71.30;101424.09;1723827;82;21102;-68
2022/10/14 04:07:47;;;;;;;18.98;14.50;;;;;;;9.99;71.35;101424.30;1729517;82;21000;-67
2022/10/14 04:10:14;;;;;;;22.75;13.80;;;;;;;9.98;71.45;101424.55;1722727;81;20992;-69
2022/10/14 04:12:42;;;;;;;19.73;13.72;;;;;;;9.98;71.44;101426.69;1724343;82;21111;-67
2022/10/14 04:15:16;;;;;;;19.30;13.53;;;;;;;9.97;71.46;101426.41;1713754;81;20996;-69
2022/10/14 04:17:44;;;;;;;17.92;13.53;;;;;;;9.97;71.48;101421.56;1722779;82;20971;-67
2022/10/14 04:20:12;;;;;;;17.65;14.20;;;;;;;9.97;71.56;101418.40;1715835;82;21003;-68
2022/10/14 04:22:39;;;;;;;18.62;13.62;;;;;;;10.00;71.65;101420.61;1703047;84;21568;-68
2022/10/14 04:25:09;;;;;;;19.15;13.50;;;;;;;10.05;71.73;101415.90;1703103;84;20955;-68
2022/10/14 04:27:37;;;;;;;16.05;12.45;;;;;;;10.07;71.75;101417.83;1702992;84;21177;-67
2022/10/14 04:30:08;;;;;;;15.43;12.53;;;;;;;10.09;71.74;101417.86;1702692;84;20990;-67
2022/10/14 04:32:43;;;;;;;16.10;12.13;;;;;;;10.12;71.72;101422.45;1701896;82;21180;-68
2022/10/14 04:35:10;;;;;;;16.70;12.78;;;;;;;10.10;71.68;101422.17;1702966;84;21051;-67
2022/10/14 04:37:39;;;;;;;14.90;11.95;;;;;;;10.12;71.71;101422.45;1675078;82;21252;-67
2022/10/14 04:40:10;;;;;;;15.90;11.85;;;;;;;10.09;71.62;101420.52;1704122;82;21179;-67
2022/10/14 04:42:38;;;;;;;16.87;13.20;;;;;;;9.99;71.57;101424.83;1704825;82;21062;-67
2022/10/14 04:45:08;;;;;;;14.98;11.90;;;;;;;9.92;71.75;101426.80;1703187;84;21075;-68
2022/10/14 04:47:41;;;;;;;15.18;12.15;;;;;;;9.92;71.82;101427.61;1674627;85;21164;-67
2022/10/14 04:50:11;;;;;;;18.10;13.58;;;;;;;9.86;71.89;101429.33;1674482;85;21090;-67
2022/10/14 04:52:38;;;;;;;15.28;12.53;;;;;;;9.82;72.04;101431.38;1684047;82;21187;-67
2022/10/14 04:55:10;;;;;;;15.83;12.15;;;;;;;9.82;72.16;101426.03;1713104;83;21651;-66
2022/10/14 04:57:42;;;;;;;15.90;12.25;;;;;;;9.84;72.31;101428.77;1725572;83;21245;-67
2022/10/14 05:00:11;;;;;;;15.50;11.88;;;;;;;9.89;72.38;101428.59;1703077;84;21099;-67
2022/10/14 05:02:55;;;;;;;18.75;13.58;;;;;;;9.94;72.43;101429.53;1695588;84;21578;-69
2022/10/14 05:05:25;;;;;;;18.02;13.75;;;;;;;9.98;72.44;101428.55;1719896;83;21188;-68
2022/10/14 05:07:54;;;;;;;19.50;13.48;;;;;;;10.02;72.41;101429.17;1699680;84;21100;-67
2022/10/14 05:10:23;;;;;;;20.68;15.28;;;;;;;10.01;72.33;101432.09;1716898;83;21108;-68
2022/10/14 05:12:51;;;;;;;22.22;15.18;;;;;;;9.89;72.39;101428.06;1705926;84;21154;-68
2022/10/14 05:15:20;;;;;;;22.62;15.23;;;;;;;9.78;72.61;101431.02;1705998;84;21059;-68
2022/10/14 05:17:50;;;;;;;24.05;16.77;;;;;;;9.75;72.88;101434.67;1704800;84;21289;-67
2022/10/14 05:20:19;;;;;;;26.77;17.62;;;;;;;9.76;73.04;101434.43;1679994;84;21118;-67
2022/10/14 05:22:51;;;;;;;25.52;18.48;;;;;;;9.80;73.15;101432.92;1706096;84;22721;-67
2022/10/14 05:25:21;;;;;;;24.40;15.83;;;;;;;9.85;73.23;101432.25;1657492;84;21043;-67
2022/10/14 05:27:57;;;;;;;22.17;16.85;;;;;;;9.91;73.25;101439.86;1706260;84;21742;-66
2022/10/14 05:30:32;;;;;;;26.90;17.20;;;;;;;9.89;73.28;101444.08;1706246;82;21320;-68
2022/10/14 05:33:04;;;;;;;23.83;16.10;;;;;;;9.89;73.35;101446.75;1646518;85;21075;-69
2022/10/14 05:35:37;;;;;;;26.45;17.27;;;;;;;9.88;73.41;101444.33;1706275;84;21024;-67
2022/10/14 05:38:08;;;;;;;26.37;17.73;;;;;;;9.91;73.54;101449.20;1699232;84;20967;-68
2022/10/14 05:40:56;;;;;;;24.52;17.48;;;;;;;9.99;73.64;101449.66;1674942;84;21031;-67
2022/10/14 05:43:25;;;;;;;23.20;16.23;;;;;;;10.14;73.72;101445.73;1699076;84;21119;-67
2022/10/14 05:45:52;;;;;;;25.95;16.42;;;;;;;10.27;73.66;101441.00;1673199;84;21059;-68
2022/10/14 05:48:22;;;;;;;23.65;16.50;;;;;;;10.38;73.53;101452.71;1673349;84;21141;-67
2022/10/14 05:50:51;;;;;;;27.58;17.45;;;;;;;10.47;73.41;101448.64;1673757;84;21536;-69
2022/10/14 05:53:19;;;;;;;24.90;16.80;;;;;;;10.58;73.30;101455.02;1706587;82;21162;-68
2022/10/14 05:55:53;;;;;;;26.02;16.37;;;;;;;10.71;73.25;101463.30;1728042;83;21128;-68
2022/10/14 05:58:23;;;;;;;25.60;16.75;;;;;;;10.81;73.08;101455.48;1726991;83;21058;-67
2022/10/14 06:00:51;;;;;;;24.12;15.50;;;;;;;10.89;72.94;101460.48;1699477;83;21039;-69
2022/10/14 06:03:31;;;;;;;23.93;15.30;;;;;;;10.98;72.73;101460.37;1700455;83;21019;-69
2022/10/14 06:06:13;;;;;;;25.43;16.40;;;;;;;11.05;72.44;101460.23;1726645;83;21748;-68
2022/10/14 06:08:41;;;;;;;22.63;14.73;;;;;;;11.11;72.22;101462.48;1727585;83;21176;-69
2022/10/14 06:11:11;;;;;;;25.02;16.10;;;;;;;11.20;72.03;101469.89;1726977;83;21360;-67
2022/10/14 06:13:42;;;;;;;;;;;;;;;11.32;71.84;101474.37;1729160;83;21177;-68
2022/10/14 06:38:17;;;;;;;23.37;15.07;;;;;;;11.98;69.11;101479.59;1781744;78;22087;-68
2022/10/14 06:41:07;;;;;;;24.63;15.87;;;;;;;12.05;68.83;101478.08;1768885;78;21269;-68
2022/10/14 06:43:52;;;;;;;20.67;14.63;;;;;;;12.11;68.76;101473.06;1819315;78;21122;-67
2022/10/14 06:52:20;;;;;;;18.70;12.53;;;;;;;12.30;68.37;101476.30;1801385;77;21805;-68
2022/10/14 06:54:47;;;;;;;20.73;12.60;;;;;;;12.34;68.09;101470.23;1784653;79;21222;-68
2022/10/14 06:57:14;;;;;;;20.07;12.77;;;;;;;12.41;68.14;101477.55;1797317;79;21171;-67
2022/10/14 06:59:41;;;;;;;18.47;12.13;;;;;;;12.53;68.09;101476.63;1820780;78;21285;-68
2022/10/14 07:02:09;;;;;;;14.23;10.47;;;;;;;12.66;67.92;101470.91;1797156;79;21180;-69
2022/10/14 07:04:35;;;;;;;18.87;10.97;;;;;;;12.79;67.40;101474.56;1788560;80;21122;-67
2022/10/14 07:07:02;;;;;;;19.37;10.93;;;;;;;12.83;66.95;101477.05;1797151;79;21251;-68
2022/10/14 07:09:30;;;;;;;17.30;11.90;;;;;;;12.88;66.63;101473.61;1788279;80;21275;-67
2022/10/14 07:11:57;;;;;;;15.43;10.60;;;;;;;12.95;66.49;101469.39;1797283;79;21202;-68
2022/10/14 07:14:25;;;;;;;19.20;10.27;;;;;;;13.03;66.28;101467.59;1797581;79;21411;-68
2022/10/14 07:16:52;;;;;;;17.87;10.83;;;;;;;13.07;66.07;101464.18;1815995;79;21243;-68
2022/10/14 07:19:19;;;;;;;16.60;10.53;;;;;;;13.17;66.05;101458.12;1815643;79;21180;-68
2022/10/14 07:21:46;;;;;;;15.33;9.40;;;;;;;13.34;65.97;101460.20;1815727;79;21278;-68
2022/10/14 07:24:13;;;;;;;14.03;8.63;;;;;;;13.53;65.72;101461.19;1798039;79;21459;-69
2022/10/14 07:26:39;;;;;;;13.13;8.60;;;;;;;13.74;65.11;101463.52;1798023;79;21306;-67
2022/10/14 07:29:06;;;;;;;15.83;8.37;;;;;;;13.83;64.27;101456.08;1798117;79;21405;-68
2022/10/14 07:31:33;;;;;;;18.23;10.30;;;;;;;13.82;63.88;101451.78;1798090;79;21365;-68
2022/10/14 07:34:00;;;;;;;16.40;9.27;;;;;;;13.87;63.73;101460.40;1797967;79;21401;-67
2022/10/14 07:36:27;;;;;;;14.03;8.83;;;;;;;14.13;63.07;101454.68;1797981;79;21326;-68
2022/10/14 07:38:54;;;;;;;16.97;9.30;;;;;;;14.13;63.07;101454.68;1798311;79;21421;-67
2022/10/14 07:41:23;;;;;;;15.43;8.67;;;;;;;14.23;62.10;101456.63;1798001;79;21472;-66
2022/10/14 07:43:53;;;;;;;15.07;8.97;;;;;;;14.23;62.10;101456.63;1798114;79;21625;-68
2022/10/14 07:46:31;;;;;;;14.67;8.60;;;;;;;14.27;61.67;101455.84;1797971;79;21578;-67
2022/10/14 07:49:14;;;;;;;14.00;7.97;;;;;;;14.36;61.08;101457.52;1798298;79;21396;-67
2022/10/14 07:51:41;;;;;;;14.70;9.37;;;;;;;14.36;61.08;101457.52;1797929;79;21726;-67
2022/10/14 07:54:14;;;;;;;16.20;10.33;;;;;;;14.42;61.20;101463.73;1798027;79;22250;-68
2022/10/14 07:56:42;;;;;;;15.17;9.47;;;;;;;14.42;61.20;101463.73;1797359;79;21399;-67
2022/10/14 07:59:09;;;;;;;14.00;8.60;;;;;;;14.54;61.06;101461.16;1797996;79;21633;-68
2022/10/14 08:01:37;;;;;;;14.17;8.37;;;;;;;14.68;60.51;101460.13;1797949;79;21684;-67
2022/10/14 08:04:04;;;;;;;16.60;9.30;;;;;;;14.71;60.34;101459.61;1798382;79;21787;-68
2022/10/14 08:06:32;;;;;;;16.27;9.30;;;;;;;14.71;59.90;101444.83;1798071;79;22308;-69
2022/10/14 08:08:58;;;;;;;14.60;8.83;;;;;;;14.80;60.20;101457.75;1798127;79;21677;-68
2022/10/14 08:11:27;;;;;;;14.83;9.53;;;;;;;14.98;60.01;101455.95;1797774;79;21687;-68
2022/10/14 08:13:54;;;;;;;14.07;8.63;;;;;;;15.14;59.88;101458.95;1798311;79;21687;-68
2022/10/14 08:16:31;;;;;;;15.33;8.77;;;;;;;15.28;59.08;101451.72;1798289;79;21747;-68
2022/10/14 08:19:02;;;;;;;14.50;8.20;;;;;;;15.30;58.76;101450.89;1798216;79;22965;-67
2022/10/14 08:21:30;;;;;;;;;;;;;;;15.40;58.75;101450.91;1800651;79;21688;-68
2022/10/14 08:23:58;;;;;;;11.17;7.27;;;;;;;15.69;58.26;101446.68;1798170;79;20156;-67
2022/10/14 08:26:34;;;;;;;11.90;6.67;;;;;;;15.76;57.43;101452.31;1798024;79;21014;-68
2022/10/14 08:29:04;;;;;;;12.83;5.73;;;;;;;15.81;57.36;101450.44;1772339;79;21528;-67
2022/10/14 08:31:32;;;;;;;10.30;5.90;;;;;;;15.81;57.36;101450.44;1788726;80;21600;-67
2022/10/14 08:34:00;;;;;;;10.10;5.67;;;;;;;15.93;56.79;101444.78;1765986;81;21065;-67
2022/10/14 08:36:26;;;;;;;9.27;5.17;;;;;;;16.01;55.63;101448.27;1788424;80;21058;-68
2022/10/14 08:38:54;;;;;;;8.87;4.70;;;;;;;16.01;55.63;101448.27;1773499;79;20983;-66
2022/10/14 08:41:36;;;;;;;9.40;4.90;;;;;;;16.20;54.31;101440.42;1779081;79;21517;-68
2022/10/14 08:44:28;;;;;;;11.70;4.87;;;;;;;16.20;54.31;101440.42;1787913;80;21031;-69
2022/10/14 08:46:58;;;;;;;9.07;4.40;;;;;;;16.36;53.97;101439.31;1772166;79;21153;-68
2022/10/14 08:49:33;;;;;;;8.30;4.47;;;;;;;16.52;53.50;101431.98;1786948;78;21011;-67
2022/10/14 08:52:11;;;;;;;8.13;4.33;;;;;;;16.65;52.78;101433.28;1787938;80;21128;-67
2022/10/14 08:54:44;;;;;;;8.07;3.80;;;;;;;16.71;51.99;101429.45;1764412;81;21018;-68
2022/10/14 08:57:18;;;;;;;8.97;3.97;;;;;;;16.81;51.41;101428.12;1791952;77;20968;-66
2022/10/14 08:59:45;;;;;;;9.87;4.13;;;;;;;16.88;50.63;101427.81;1766056;81;21837;-69
2022/10/14 09:02:41;;;;;;;7.40;3.77;;;;;;;16.92;49.91;101428.87;1768589;78;20954;-68
2022/10/14 09:05:21;;;;;;;8.33;3.77;;;;;;;16.96;50.01;101427.22;1766051;81;21081;-68
2022/10/14 09:07:50;;;;;;;7.73;4.20;;;;;;;16.98;49.49;101426.41;1770646;78;21042;-68
2022/10/14 09:10:30;;;;;;;8.30;4.00;;;;;;;17.01;49.73;101425.02;1783788;78;21031;-68
2022/10/14 09:13:27;;;;;;;8.23;4.10;;;;;;;17.07;49.52;101422.56;1768430;79;21152;-67
2022/10/14 09:16:04;;;;;;;9.53;3.73;;;;;;;17.17;49.09;101425.74;1787259;80;20979;-68
2022/10/14 09:18:38;;;;;;;6.00;3.30;;;;;;;17.26;48.59;101426.77;1787944;80;21082;-67
2022/10/14 09:21:37;;;;;;;7.17;3.60;;;;;;;17.35;48.25;101422.39;1788119;80;21026;-68
2022/10/14 09:24:26;;;;;;;7.80;3.03;;;;;;;17.43;47.84;101421.77;1754882;81;20991;-67
2022/10/14 09:27:08;;;;;;;6.53;3.03;;;;;;;17.58;47.95;101422.22;1788357;80;21251;-69
2022/10/14 09:29:52;;;;;;;8.33;3.27;;;;;;;17.71;46.30;101423.46;1766047;81;21010;-68
2022/10/14 09:32:27;;;;;;;6.77;3.10;;;;;;;17.74;46.17;101418.84;1788605;80;21015;-69
2022/10/14 09:34:55;;;;;;;8.93;4.17;;;;;;;17.83;46.30;101414.99;1788551;80;20990;-67
2022/10/14 09:37:34;;;;;;;7.90;4.07;;;;;;;17.90;46.49;101420.87;1766070;81;21557;-68
2022/10/14 09:40:11;;;;;;;7.83;4.27;;;;;;;17.81;45.24;101416.09;1789706;79;21102;-67
2022/10/14 09:43:10;;;;;;;5.70;3.50;;;;;;;17.62;45.22;101411.64;1820422;78;21556;-69
2022/10/14 09:46:02;;;;;;;8.00;3.60;;;;;;;17.47;46.11;101412.05;1797302;78;20968;-68
2022/10/14 09:48:36;;;;;;;7.03;3.07;;;;;;;17.50;45.85;101407.40;1787549;80;21065;-69
2022/10/14 09:51:28;;;;;;;7.50;3.70;;;;;;;17.63;45.90;101411.90;1788704;80;21114;-67
2022/10/14 09:53:58;;;;;;;6.80;3.50;;;;;;;17.70;46.13;101402.91;1788049;80;21317;-67
2022/10/14 09:56:36;;;;;;;7.47;3.50;;;;;;;17.80;45.20;101405.55;1788659;80;21513;-67
2022/10/14 09:59:04;;;;;;;7.83;3.00;;;;;;;17.78;44.82;101399.09;1788840;80;21518;-69
2022/10/14 10:01:43;;;;;;;6.17;2.73;;;;;;;17.79;44.52;101397.20;1788632;80;21054;-66
2022/10/14 10:04:46;;;;;;;5.83;2.40;;;;;;;17.96;44.07;101401.61;1787644;80;21063;-69
2022/10/14 10:07:31;;;;;;;4.90;2.40;;;;;;;18.06;43.32;101393.95;1788649;80;21139;-68
2022/10/14 10:10:18;;;;;;;5.03;2.30;;;;;;;18.22;42.47;101395.39;1788535;80;21565;-67
2022/10/14 10:12:46;;;;;;;5.00;2.57;;;;;;;18.27;42.18;101398.60;1788540;80;21073;-67
2022/10/14 10:15:20;;;;;;;6.27;2.50;;;;;;;18.36;41.54;101392.82;1788429;80;21003;-67
2022/10/14 10:17:46;;;;;;;5.20;2.30;;;;;;;18.44;42.11;101391.36;1788779;80;21003;-67
2022/10/14 10:20:31;;;;;;;5.97;2.60;;;;;;;18.51;41.00;101396.67;1788586;80;21147;-68
2022/10/14 10:23:25;;;;;;;5.20;2.45;;;;;;;18.59;41.03;101395.24;1788627;80;21051;-67
2022/10/14 10:25:52;;;;;;;5.37;2.50;;;;;;;18.82;40.73;101393.62;1810816;78;20986;-67
2022/10/14 10:28:31;;;;;;;4.23;2.40;;;;;;;18.86;40.05;101391.93;1820984;78;20960;-68
2022/10/14 10:31:23;;;;;;;6.40;2.40;;;;;;;18.89;40.61;101394.05;1820913;78;21446;-66
2022/10/14 10:34:10;;;;;;;5.23;2.30;;;;;;;18.95;40.02;101391.53;1820812;78;21482;-67
2022/10/14 10:36:42;;;;;;;5.90;2.30;;;;;;;19.06;39.19;101390.03;1820937;78;21440;-68
2022/10/14 10:39:32;;;;;;;6.80;2.67;;;;;;;19.02;38.68;101392.52;1820933;78;20987;-68
2022/10/14 10:42:27;;;;;;;5.90;3.00;;;;;;;18.94;38.91;101394.52;1820644;78;20990;-69
2022/10/14 10:45:08;;;;;;;6.43;2.50;;;;;;;18.92;38.90;101386.70;1820979;78;21510;-70
2022/10/14 10:47:51;;;;;;;6.12;2.52;;;;;;;18.97;38.78;101389.32;1820207;78;22142;-69
2022/10/14 10:50:29;;;;;;;5.10;2.50;;;;;;;19.03;39.00;101387.91;1820822;78;21042;-68
2022/10/14 10:53:03;;;;;;;4.43;2.37;;;;;;;19.06;38.29;101387.32;1821139;78;20999;-68
2022/10/14 10:55:41;;;;;;;5.73;2.63;;;;;;;19.05;38.93;101387.05;1821022;78;21344;-66
2022/10/14 10:58:13;;;;;;;5.50;2.30;;;;;;;19.05;39.00;101382.46;1821201;78;21054;-69
2022/10/14 11:01:08;;;;;;;6.60;3.03;;;;;;;19.04;38.52;101383.53;1821001;78;21145;-68
2022/10/14 11:04:05;;;;;;;5.20;2.40;;;;;;;18.68;38.10;101377.80;1820673;78;20944;-66
2022/10/14 11:13:20;;;;;;;4.40;2.33;;;;;;;17.74;39.88;101372.91;1820885;78;21041;-68
2022/10/14 11:16:07;;;;;;;5.13;2.50;;;;;;;17.66;40.38;101372.16;1820955;78;21511;-68
2022/10/14 11:18:49;;;;;;;5.97;2.20;;;;;;;17.54;39.28;101363.10;1820706;78;20943;-68
2022/10/14 11:21:30;;;;;;;4.93;2.30;;;;;;;17.49;39.66;101364.48;1808388;78;21065;-68
2022/10/14 11:24:05;;;;;;;3.77;2.27;;;;;;;17.55;40.28;101357.40;1803569;78;21062;-68
2022/10/14 11:27:08;;;;;;;4.97;2.10;;;;;;;17.67;40.87;101363.78;1787797;80;21097;-68
2022/10/14 11:29:45;;;;;;;6.00;2.50;;;;;;;17.72;40.63;101360.22;1765519;81;21546;-68
2022/10/14 11:32:31;;;;;;;4.97;2.33;;;;;;;17.87;40.24;101364.68;1788546;80;20998;-68
2022/10/14 11:35:34;;;;;;;5.07;2.30;;;;;;;17.97;39.71;101358.64;1794745;78;20987;-69
2022/10/14 11:38:31;;;;;;;4.33;2.20;;;;;;;17.98;38.99;101357.54;1788183;80;21010;-69
2022/10/14 11:41:28;;;;;;;5.20;2.37;;;;;;;17.89;39.54;101359.80;1791813;78;21046;-68
2022/10/14 11:44:08;;;;;;;4.80;2.30;;;;;;;17.88;39.60;101352.25;1791523;77;21150;-67
2022/10/14 11:46:43;;;;;;;5.40;2.70;;;;;;;17.87;39.21;101353.87;1777951;79;21054;-69
2022/10/14 11:49:23;;;;;;;4.30;2.20;;;;;;;17.71;38.98;101350.52;1805074;78;21042;-67
2022/10/14 11:52:06;;;;;;;5.93;2.23;;;;;;;17.59;39.18;101353.58;1797802;78;21384;-68
2022/10/14 11:54:46;;;;;;;6.40;2.67;;;;;;;17.44;39.85;101351.84;1778987;78;20999;-68
2022/10/14 11:57:43;;;;;;;6.73;2.53;;;;;;;17.37;39.69;101347.28;1788552;80;21871;-69
2022/10/14 12:00:17;;;;;;;5.40;2.63;;;;;;;17.26;40.09;101342.52;1768000;79;20986;-68
2022/10/14 12:03:12;;;;;;;6.10;2.53;;;;;;;17.13;40.16;101344.52;1788577;80;21679;-68
2022/10/14 12:06:06;;;;;;;4.83;2.90;;;;;;;17.16;39.90;101344.50;1768341;79;21003;-67
2022/10/14 12:09:06;;;;;;;6.20;3.33;;;;;;;17.20;39.64;101345.55;1779738;78;21045;-67
2022/10/14 12:11:58;;;;;;;6.77;2.90;;;;;;;17.14;39.69;101348.02;1713622;82;21198;-68
2022/10/14 12:14:54;;;;;;;5.17;2.33;;;;;;;17.02;40.19;101345.14;1753905;81;21009;-69
2022/10/14 12:17:47;;;;;;;5.00;2.60;;;;;;;17.05;40.17;101345.13;1790338;78;21734;-69
2022/10/14 12:20:49;;;;;;;5.67;2.77;;;;;;;17.06;40.51;101344.83;1787948;78;20992;-67
2022/10/14 12:23:40;;;;;;;4.87;2.50;;;;;;;17.15;40.49;101338.85;1779361;78;21450;-68
2022/10/14 12:26:31;;;;;;;6.90;3.53;;;;;;;17.22;40.54;101340.12;1768351;79;21542;-68